sensor_id;sensor_type;location;lat;lon;timestamp;P1;durP1;ratioP1;P2;durP2;ratioP2
70806;SDS011;58882;52.170;5.386;2023-02-23T00:01:28;37.20;;;18.95;;
70806;SDS011;58882;52.170;5.386;2023-02-23T00:04:08;38.22;;;19.38;;
70806;SDS011;58882;52.170;5.386;2023-02-23T00:06:57;38.22;;;18.80;;
70806;SDS011;58882;52.170;5.386;2023-02-23T00:09:38;36.60;;;18.88;;
70806;SDS011;58882;52.170;5.386;2023-02-23T00:12:25;37.40;;;19.45;;
70806;SDS011;58882;52.170;5.386;2023-02-23T00:15:05;39.75;;;19.83;;
70806;SDS011;58882;52.170;5.386;2023-02-23T00:18:00;38.83;;;19.75;;
70806;SDS011;58882;52.170;5.386;2023-02-23T00:20:42;38.40;;;19.67;;
70806;SDS011;58882;52.170;5.386;2023-02-23T00:23:29;39.35;;;19.20;;
70806;SDS011;58882;52.170;5.386;2023-02-23T00:26:09;37.55;;;18.75;;
70806;SDS011;58882;52.170;5.386;2023-02-23T00:28:58;37.53;;;19.05;;
70806;SDS011;58882;52.170;5.386;2023-02-23T00:31:39;42.67;;;21.20;;
70806;SDS011;58882;52.170;5.386;2023-02-23T00:34:26;39.88;;;19.90;;
70806;SDS011;58882;52.170;5.386;2023-02-23T00:37:14;41.13;;;20.00;;
70806;SDS011;58882;52.170;5.386;2023-02-23T00:40:08;43.33;;;21.10;;
70806;SDS011;58882;52.170;5.386;2023-02-23T00:42:52;41.75;;;18.55;;
70806;SDS011;58882;52.170;5.386;2023-02-23T00:45:39;39.00;;;19.98;;
70806;SDS011;58882;52.170;5.386;2023-02-23T00:48:20;42.60;;;19.80;;
70806;SDS011;58882;52.170;5.386;2023-02-23T00:51:07;41.30;;;20.35;;
70806;SDS011;58882;52.170;5.386;2023-02-23T00:56:41;40.03;;;20.13;;
70806;SDS011;58882;52.170;5.386;2023-02-23T00:59:21;40.95;;;19.75;;
70806;SDS011;58882;52.170;5.386;2023-02-23T01:02:08;39.30;;;20.23;;
70806;SDS011;58882;52.170;5.386;2023-02-23T01:04:48;41.85;;;20.20;;
70806;SDS011;58882;52.170;5.386;2023-02-23T01:07:35;41.38;;;20.45;;
70806;SDS011;58882;52.170;5.386;2023-02-23T01:10:16;41.20;;;20.02;;
70806;SDS011;58882;52.170;5.386;2023-02-23T01:13:03;44.67;;;22.17;;
70806;SDS011;58882;52.170;5.386;2023-02-23T01:15:44;42.45;;;21.13;;
70806;SDS011;58882;52.170;5.386;2023-02-23T01:18:33;42.75;;;21.65;;
70806;SDS011;58882;52.170;5.386;2023-02-23T01:21:15;41.38;;;20.60;;
70806;SDS011;58882;52.170;5.386;2023-02-23T01:24:13;42.15;;;19.55;;
70806;SDS011;58882;52.170;5.386;2023-02-23T01:26:53;44.08;;;20.92;;
70806;SDS011;58882;52.170;5.386;2023-02-23T01:29:47;43.40;;;20.77;;
70806;SDS011;58882;52.170;5.386;2023-02-23T01:35:14;38.55;;;19.40;;
70806;SDS011;58882;52.170;5.386;2023-02-23T01:40:49;42.90;;;20.08;;
70806;SDS011;58882;52.170;5.386;2023-02-23T01:46:16;43.30;;;20.63;;
70806;SDS011;58882;52.170;5.386;2023-02-23T01:48:56;39.33;;;20.10;;
70806;SDS011;58882;52.170;5.386;2023-02-23T01:51:40;42.22;;;20.55;;
70806;SDS011;58882;52.170;5.386;2023-02-23T01:54:31;43.55;;;20.60;;
70806;SDS011;58882;52.170;5.386;2023-02-23T01:57:13;42.75;;;20.63;;
70806;SDS011;58882;52.170;5.386;2023-02-23T02:00:00;42.88;;;20.98;;
70806;SDS011;58882;52.170;5.386;2023-02-23T02:02:42;40.97;;;21.10;;
70806;SDS011;58882;52.170;5.386;2023-02-23T02:05:29;41.42;;;20.80;;
70806;SDS011;58882;52.170;5.386;2023-02-23T02:08:09;40.33;;;20.58;;
70806;SDS011;58882;52.170;5.386;2023-02-23T02:10:57;41.75;;;20.63;;
70806;SDS011;58882;52.170;5.386;2023-02-23T02:13:37;47.70;;;21.95;;
70806;SDS011;58882;52.170;5.386;2023-02-23T02:35:07;44.35;;;22.17;;
70806;SDS011;58882;52.170;5.386;2023-02-23T02:41:32;40.95;;;20.55;;
70806;SDS011;58882;52.170;5.386;2023-02-23T02:47:37;43.67;;;20.63;;
70806;SDS011;58882;52.170;5.386;2023-02-23T02:50:41;45.22;;;21.42;;
70806;SDS011;58882;52.170;5.386;2023-02-23T02:53:44;47.00;;;21.90;;
70806;SDS011;58882;52.170;5.386;2023-02-23T02:56:52;44.35;;;21.23;;
70806;SDS011;58882;52.170;5.386;2023-02-23T02:59:30;43.92;;;21.63;;
70806;SDS011;58882;52.170;5.386;2023-02-23T03:02:42;43.20;;;21.73;;
70806;SDS011;58882;52.170;5.386;2023-02-23T03:05:44;41.30;;;21.00;;
70806;SDS011;58882;52.170;5.386;2023-02-23T03:09:02;44.72;;;21.58;;
70806;SDS011;58882;52.170;5.386;2023-02-23T03:15:39;45.28;;;21.35;;
70806;SDS011;58882;52.170;5.386;2023-02-23T03:19:25;46.22;;;21.73;;
70806;SDS011;58882;52.170;5.386;2023-02-23T03:22:23;40.42;;;20.42;;
70806;SDS011;58882;52.170;5.386;2023-02-23T03:36:00;41.15;;;20.02;;
70806;SDS011;58882;52.170;5.386;2023-02-23T03:39:12;46.15;;;21.17;;
70806;SDS011;58882;52.170;5.386;2023-02-23T03:42:14;44.10;;;20.33;;
70806;SDS011;58882;52.170;5.386;2023-02-23T03:45:23;43.40;;;21.40;;
70806;SDS011;58882;52.170;5.386;2023-02-23T03:48:23;45.17;;;20.27;;
70806;SDS011;58882;52.170;5.386;2023-02-23T03:51:31;44.58;;;21.55;;
70806;SDS011;58882;52.170;5.386;2023-02-23T03:54:38;43.47;;;20.35;;
70806;SDS011;58882;52.170;5.386;2023-02-23T03:57:50;41.55;;;19.60;;
70806;SDS011;58882;52.170;5.386;2023-02-23T04:00:52;42.67;;;20.15;;
70806;SDS011;58882;52.170;5.386;2023-02-23T04:04:08;39.13;;;20.02;;
70806;SDS011;58882;52.170;5.386;2023-02-23T04:07:07;39.92;;;19.52;;
70806;SDS011;58882;52.170;5.386;2023-02-23T04:10:14;44.78;;;19.77;;
70806;SDS011;58882;52.170;5.386;2023-02-23T04:13:08;46.70;;;21.65;;
70806;SDS011;58882;52.170;5.386;2023-02-23T04:16:08;41.90;;;20.73;;
70806;SDS011;58882;52.170;5.386;2023-02-23T04:18:41;38.65;;;19.92;;
70806;SDS011;58882;52.170;5.386;2023-02-23T04:24:09;38.72;;;20.08;;
70806;SDS011;58882;52.170;5.386;2023-02-23T04:27:03;40.08;;;19.85;;
70806;SDS011;58882;52.170;5.386;2023-02-23T04:29:43;40.55;;;19.95;;
70806;SDS011;58882;52.170;5.386;2023-02-23T04:35:17;43.10;;;20.48;;
70806;SDS011;58882;52.170;5.386;2023-02-23T04:38:04;40.58;;;19.02;;
70806;SDS011;58882;52.170;5.386;2023-02-23T04:40:44;40.60;;;18.95;;
70806;SDS011;58882;52.170;5.386;2023-02-23T04:43:31;39.95;;;20.50;;
70806;SDS011;58882;52.170;5.386;2023-02-23T04:49:05;41.20;;;19.35;;
70806;SDS011;58882;52.170;5.386;2023-02-23T04:51:38;39.00;;;19.85;;
70806;SDS011;58882;52.170;5.386;2023-02-23T04:57:12;42.67;;;19.80;;
70806;SDS011;58882;52.170;5.386;2023-02-23T04:59:59;41.40;;;19.83;;
70806;SDS011;58882;52.170;5.386;2023-02-23T05:02:33;41.85;;;19.73;;
70806;SDS011;58882;52.170;5.386;2023-02-23T05:05:29;43.03;;;20.95;;
70806;SDS011;58882;52.170;5.386;2023-02-23T05:08:02;40.83;;;20.98;;
70806;SDS011;58882;52.170;5.386;2023-02-23T05:13:29;45.85;;;20.98;;
70806;SDS011;58882;52.170;5.386;2023-02-23T05:16:24;47.33;;;20.45;;
70806;SDS011;58882;52.170;5.386;2023-02-23T05:21:51;38.97;;;19.90;;
70806;SDS011;58882;52.170;5.386;2023-02-23T05:27:18;40.15;;;19.00;;
70806;SDS011;58882;52.170;5.386;2023-02-23T05:32:52;39.97;;;18.92;;
70806;SDS011;58882;52.170;5.386;2023-02-23T05:35:25;43.63;;;20.05;;
70806;SDS011;58882;52.170;5.386;2023-02-23T05:41:15;45.97;;;20.90;;
70806;SDS011;58882;52.170;5.386;2023-02-23T05:43:58;41.88;;;19.70;;
70806;SDS011;58882;52.170;5.386;2023-02-23T05:46:45;45.33;;;20.08;;
70806;SDS011;58882;52.170;5.386;2023-02-23T05:49:28;46.22;;;20.52;;
70806;SDS011;58882;52.170;5.386;2023-02-23T05:52:15;44.33;;;20.42;;
70806;SDS011;58882;52.170;5.386;2023-02-23T05:57:43;40.63;;;18.27;;
70806;SDS011;58882;52.170;5.386;2023-02-23T06:00:23;42.80;;;20.17;;
70806;SDS011;58882;52.170;5.386;2023-02-23T06:03:10;44.75;;;19.48;;
70806;SDS011;58882;52.170;5.386;2023-02-23T06:08:38;42.58;;;20.33;;
70806;SDS011;58882;52.170;5.386;2023-02-23T06:11:32;41.28;;;19.35;;
70806;SDS011;58882;52.170;5.386;2023-02-23T06:14:12;40.38;;;18.85;;
70806;SDS011;58882;52.170;5.386;2023-02-23T06:19:46;40.60;;;18.60;;
70806;SDS011;58882;52.170;5.386;2023-02-23T06:22:40;37.22;;;18.58;;
70806;SDS011;58882;52.170;5.386;2023-02-23T06:25:13;39.90;;;18.95;;
70806;SDS011;58882;52.170;5.386;2023-02-23T06:28:07;37.53;;;18.40;;
70806;SDS011;58882;52.170;5.386;2023-02-23T06:30:41;38.88;;;18.92;;
70806;SDS011;58882;52.170;5.386;2023-02-23T06:36:16;35.80;;;17.98;;
70806;SDS011;58882;52.170;5.386;2023-02-23T06:39:03;36.30;;;17.88;;
70806;SDS011;58882;52.170;5.386;2023-02-23T06:41:57;39.20;;;19.15;;
70806;SDS011;58882;52.170;5.386;2023-02-23T06:44:31;35.03;;;16.98;;
70806;SDS011;58882;52.170;5.386;2023-02-23T06:49:58;36.58;;;18.42;;
70806;SDS011;58882;52.170;5.386;2023-02-23T06:55:32;37.83;;;17.80;;
70806;SDS011;58882;52.170;5.386;2023-02-23T07:01:06;39.30;;;17.90;;
70806;SDS011;58882;52.170;5.386;2023-02-23T07:03:54;37.35;;;16.92;;
70806;SDS011;58882;52.170;5.386;2023-02-23T07:06:34;35.33;;;17.20;;
70806;SDS011;58882;52.170;5.386;2023-02-23T07:09:21;36.58;;;17.27;;
70806;SDS011;58882;52.170;5.386;2023-02-23T07:12:02;39.58;;;17.55;;
70806;SDS011;58882;52.170;5.386;2023-02-23T07:14:49;33.28;;;16.67;;
70806;SDS011;58882;52.170;5.386;2023-02-23T07:20:23;32.60;;;15.82;;
70806;SDS011;58882;52.170;5.386;2023-02-23T07:25:57;33.92;;;16.00;;
70806;SDS011;58882;52.170;5.386;2023-02-23T07:28:40;35.28;;;16.75;;
70806;SDS011;58882;52.170;5.386;2023-02-23T07:31:27;35.83;;;16.75;;
70806;SDS011;58882;52.170;5.386;2023-02-23T07:36:54;34.03;;;15.93;;
70806;SDS011;58882;52.170;5.386;2023-02-23T07:42:21;34.58;;;18.02;;
70806;SDS011;58882;52.170;5.386;2023-02-23T07:47:49;35.40;;;16.95;;
70806;SDS011;58882;52.170;5.386;2023-02-23T07:50:38;38.88;;;18.27;;
70806;SDS011;58882;52.170;5.386;2023-02-23T07:53:18;35.75;;;17.30;;
70806;SDS011;58882;52.170;5.386;2023-02-23T07:56:06;32.88;;;16.63;;
70806;SDS011;58882;52.170;5.386;2023-02-23T07:58:46;35.63;;;16.83;;
70806;SDS011;58882;52.170;5.386;2023-02-23T08:01:33;33.33;;;17.27;;
70806;SDS011;58882;52.170;5.386;2023-02-23T08:04:13;36.05;;;17.27;;
70806;SDS011;58882;52.170;5.386;2023-02-23T08:07:00;36.28;;;17.25;;
70806;SDS011;58882;52.170;5.386;2023-02-23T08:09:33;35.78;;;17.67;;
70806;SDS011;58882;52.170;5.386;2023-02-23T08:15:00;36.50;;;17.50;;
70806;SDS011;58882;52.170;5.386;2023-02-23T08:17:56;37.50;;;18.58;;
70806;SDS011;58882;52.170;5.386;2023-02-23T08:20:29;35.58;;;16.50;;
70806;SDS011;58882;52.170;5.386;2023-02-23T08:25:56;35.70;;;16.75;;
70806;SDS011;58882;52.170;5.386;2023-02-23T08:31:30;34.67;;;17.02;;
70806;SDS011;58882;52.170;5.386;2023-02-23T08:34:17;34.72;;;17.25;;
70806;SDS011;58882;52.170;5.386;2023-02-23T08:36:51;31.25;;;15.88;;
70806;SDS011;58882;52.170;5.386;2023-02-23T08:42:26;35.65;;;16.30;;
70806;SDS011;58882;52.170;5.386;2023-02-23T08:45:13;33.55;;;15.23;;
70806;SDS011;58882;52.170;5.386;2023-02-23T08:50:41;30.30;;;15.00;;
70806;SDS011;58882;52.170;5.386;2023-02-23T08:56:10;32.50;;;15.18;;
70806;SDS011;58882;52.170;5.386;2023-02-23T09:01:38;30.48;;;14.27;;
70806;SDS011;58882;52.170;5.386;2023-02-23T09:04:12;32.75;;;14.57;;
70806;SDS011;58882;52.170;5.386;2023-02-23T09:09:51;32.70;;;13.85;;
70806;SDS011;58882;52.170;5.386;2023-02-23T09:12:46;30.42;;;13.88;;
70806;SDS011;58882;52.170;5.386;2023-02-23T09:18:13;29.45;;;13.52;;
70806;SDS011;58882;52.170;5.386;2023-02-23T09:20:46;28.90;;;13.68;;
70806;SDS011;58882;52.170;5.386;2023-02-23T09:26:24;29.23;;;13.15;;
70806;SDS011;58882;52.170;5.386;2023-02-23T09:29:13;26.90;;;13.43;;
70806;SDS011;58882;52.170;5.386;2023-02-23T09:31:46;29.63;;;12.80;;
70806;SDS011;58882;52.170;5.386;2023-02-23T09:34:42;28.38;;;12.73;;
70806;SDS011;58882;52.170;5.386;2023-02-23T09:37:30;29.33;;;12.35;;
70806;SDS011;58882;52.170;5.386;2023-02-23T09:40:26;26.38;;;12.00;;
70806;SDS011;58882;52.170;5.386;2023-02-23T09:43:03;25.30;;;11.93;;
70806;SDS011;58882;52.170;5.386;2023-02-23T09:46:16;24.92;;;11.40;;
70806;SDS011;58882;52.170;5.386;2023-02-23T09:49:16;25.08;;;11.57;;
70806;SDS011;58882;52.170;5.386;2023-02-23T09:52:24;26.52;;;11.45;;
70806;SDS011;58882;52.170;5.386;2023-02-23T09:55:18;27.58;;;11.93;;
70806;SDS011;58882;52.170;5.386;2023-02-23T10:04:35;25.83;;;11.18;;
70806;SDS011;58882;52.170;5.386;2023-02-23T10:07:32;26.23;;;11.98;;
70806;SDS011;58882;52.170;5.386;2023-02-23T10:13:27;24.77;;;11.15;;
70806;SDS011;58882;52.170;5.386;2023-02-23T10:16:33;23.48;;;10.40;;
70806;SDS011;58882;52.170;5.386;2023-02-23T10:20:17;22.48;;;10.40;;
70806;SDS011;58882;52.170;5.386;2023-02-23T10:25:56;20.92;;;9.52;;
70806;SDS011;58882;52.170;5.386;2023-02-23T10:28:46;21.33;;;9.25;;
70806;SDS011;58882;52.170;5.386;2023-02-23T10:34:31;21.13;;;9.48;;
70806;SDS011;58882;52.170;5.386;2023-02-23T10:37:06;21.15;;;9.60;;
70806;SDS011;58882;52.170;5.386;2023-02-23T10:40:05;21.42;;;10.50;;
70806;SDS011;58882;52.170;5.386;2023-02-23T10:42:45;22.65;;;9.90;;
70806;SDS011;58882;52.170;5.386;2023-02-23T10:45:38;21.98;;;9.88;;
70806;SDS011;58882;52.170;5.386;2023-02-23T10:48:25;20.83;;;9.57;;
70806;SDS011;58882;52.170;5.386;2023-02-23T10:57:26;20.15;;;8.82;;
70806;SDS011;58882;52.170;5.386;2023-02-23T11:03:17;19.77;;;8.57;;
70806;SDS011;58882;52.170;5.386;2023-02-23T11:06:02;19.63;;;8.90;;
70806;SDS011;58882;52.170;5.386;2023-02-23T11:08:49;19.15;;;8.15;;
70806;SDS011;58882;52.170;5.386;2023-02-23T11:14:24;19.10;;;8.00;;
70806;SDS011;58882;52.170;5.386;2023-02-23T11:17:01;17.48;;;8.10;;
70806;SDS011;58882;52.170;5.386;2023-02-23T11:22:35;21.17;;;8.30;;
70806;SDS011;58882;52.170;5.386;2023-02-23T11:25:37;18.40;;;7.25;;
70806;SDS011;58882;52.170;5.386;2023-02-23T11:28:26;16.88;;;8.27;;
70806;SDS011;58882;52.170;5.386;2023-02-23T11:31:20;17.77;;;7.95;;
70806;SDS011;58882;52.170;5.386;2023-02-23T11:36:59;18.23;;;7.57;;
70806;SDS011;58882;52.170;5.386;2023-02-23T11:40:36;15.70;;;7.10;;
70806;SDS011;58882;52.170;5.386;2023-02-23T11:43:15;15.90;;;6.53;;
70806;SDS011;58882;52.170;5.386;2023-02-23T11:46:10;17.20;;;7.30;;
70806;SDS011;58882;52.170;5.386;2023-02-23T11:48:47;15.48;;;6.70;;
70806;SDS011;58882;52.170;5.386;2023-02-23T11:51:48;15.30;;;6.65;;
70806;SDS011;58882;52.170;5.386;2023-02-23T11:54:26;16.55;;;7.40;;
70806;SDS011;58882;52.170;5.386;2023-02-23T12:00:10;14.70;;;6.90;;
70806;SDS011;58882;52.170;5.386;2023-02-23T12:03:00;16.10;;;7.25;;
70806;SDS011;58882;52.170;5.386;2023-02-23T12:05:45;18.60;;;7.38;;
70806;SDS011;58882;52.170;5.386;2023-02-23T12:08:48;16.73;;;7.60;;
70806;SDS011;58882;52.170;5.386;2023-02-23T12:11:36;18.20;;;7.47;;
70806;SDS011;58882;52.170;5.386;2023-02-23T12:14:35;19.35;;;7.80;;
70806;SDS011;58882;52.170;5.386;2023-02-23T12:20:30;17.33;;;7.28;;
70806;SDS011;58882;52.170;5.386;2023-02-23T12:23:17;17.15;;;7.63;;
70806;SDS011;58882;52.170;5.386;2023-02-23T12:26:19;19.48;;;7.95;;
70806;SDS011;58882;52.170;5.386;2023-02-23T12:32:18;14.93;;;6.72;;
70806;SDS011;58882;52.170;5.386;2023-02-23T12:37:55;19.55;;;7.43;;
70806;SDS011;58882;52.170;5.386;2023-02-23T12:41:00;17.90;;;7.22;;
70806;SDS011;58882;52.170;5.386;2023-02-23T12:46:40;17.42;;;7.50;;
70806;SDS011;58882;52.170;5.386;2023-02-23T12:52:26;16.90;;;7.05;;
70806;SDS011;58882;52.170;5.386;2023-02-23T12:55:18;17.80;;;7.07;;
70806;SDS011;58882;52.170;5.386;2023-02-23T12:58:12;19.02;;;7.00;;
70806;SDS011;58882;52.170;5.386;2023-02-23T13:01:15;14.80;;;6.82;;
70806;SDS011;58882;52.170;5.386;2023-02-23T13:10:47;15.68;;;6.60;;
70806;SDS011;58882;52.170;5.386;2023-02-23T13:13:49;17.30;;;7.45;;
70806;SDS011;58882;52.170;5.386;2023-02-23T13:19:40;17.00;;;7.25;;
70806;SDS011;58882;52.170;5.386;2023-02-23T13:22:27;16.05;;;7.03;;
70806;SDS011;58882;52.170;5.386;2023-02-23T13:25:38;15.95;;;6.20;;
70806;SDS011;58882;52.170;5.386;2023-02-23T13:31:52;16.33;;;6.88;;
70806;SDS011;58882;52.170;5.386;2023-02-23T13:34:34;15.15;;;6.03;;
70806;SDS011;58882;52.170;5.386;2023-02-23T13:43:27;15.63;;;6.85;;
70806;SDS011;58882;52.170;5.386;2023-02-23T13:49:15;15.77;;;6.32;;
70806;SDS011;58882;52.170;5.386;2023-02-23T13:58:29;16.92;;;6.47;;
70806;SDS011;58882;52.170;5.386;2023-02-23T14:01:13;14.10;;;6.22;;
70806;SDS011;58882;52.170;5.386;2023-02-23T14:04:13;16.25;;;6.53;;
70806;SDS011;58882;52.170;5.386;2023-02-23T14:07:02;13.00;;;5.63;;
70806;SDS011;58882;52.170;5.386;2023-02-23T14:10:34;15.55;;;5.88;;
70806;SDS011;58882;52.170;5.386;2023-02-23T14:16:07;15.07;;;6.40;;
70806;SDS011;58882;52.170;5.386;2023-02-23T14:19:06;15.73;;;5.78;;
70806;SDS011;58882;52.170;5.386;2023-02-23T14:22:04;14.05;;;5.63;;
70806;SDS011;58882;52.170;5.386;2023-02-23T14:33:59;15.90;;;6.78;;
70806;SDS011;58882;52.170;5.386;2023-02-23T14:36:41;18.17;;;7.32;;
70806;SDS011;58882;52.170;5.386;2023-02-23T14:39:38;14.35;;;6.40;;
70806;SDS011;58882;52.170;5.386;2023-02-23T14:42:25;20.40;;;7.55;;
70806;SDS011;58882;52.170;5.386;2023-02-23T14:45:28;16.77;;;7.03;;
70806;SDS011;58882;52.170;5.386;2023-02-23T14:48:09;19.17;;;7.80;;
70806;SDS011;58882;52.170;5.386;2023-02-23T14:51:13;21.25;;;7.65;;
70806;SDS011;58882;52.170;5.386;2023-02-23T14:54:08;20.30;;;7.82;;
70806;SDS011;58882;52.170;5.386;2023-02-23T14:57:17;22.25;;;9.05;;
70806;SDS011;58882;52.170;5.386;2023-02-23T15:02:58;24.30;;;9.55;;
70806;SDS011;58882;52.170;5.386;2023-02-23T15:05:58;23.40;;;8.93;;
70806;SDS011;58882;52.170;5.386;2023-02-23T15:08:39;23.20;;;10.20;;
70806;SDS011;58882;52.170;5.386;2023-02-23T15:11:29;23.80;;;9.82;;
70806;SDS011;58882;52.170;5.386;2023-02-23T15:14:02;24.48;;;9.43;;
70806;SDS011;58882;52.170;5.386;2023-02-23T15:17:10;22.98;;;8.70;;
70806;SDS011;58882;52.170;5.386;2023-02-23T15:22:54;17.65;;;6.10;;
70806;SDS011;58882;52.170;5.386;2023-02-23T15:25:35;14.45;;;5.47;;
70806;SDS011;58882;52.170;5.386;2023-02-23T15:28:33;16.13;;;5.28;;
70806;SDS011;58882;52.170;5.386;2023-02-23T15:31:11;12.10;;;4.07;;
70806;SDS011;58882;52.170;5.386;2023-02-23T15:36:41;13.57;;;4.43;;
70806;SDS011;58882;52.170;5.386;2023-02-23T15:39:37;18.05;;;4.85;;
70806;SDS011;58882;52.170;5.386;2023-02-23T15:42:40;16.40;;;3.97;;
70806;SDS011;58882;52.170;5.386;2023-02-23T15:51:38;15.13;;;3.75;;
70806;SDS011;58882;52.170;5.386;2023-02-23T15:54:37;12.88;;;3.20;;
70806;SDS011;58882;52.170;5.386;2023-02-23T15:57:29;12.80;;;3.13;;
70806;SDS011;58882;52.170;5.386;2023-02-23T16:00:37;11.52;;;2.70;;
70806;SDS011;58882;52.170;5.386;2023-02-23T16:03:21;12.82;;;3.00;;
70806;SDS011;58882;52.170;5.386;2023-02-23T16:06:33;10.40;;;2.75;;
70806;SDS011;58882;52.170;5.386;2023-02-23T16:12:12;13.48;;;2.70;;
70806;SDS011;58882;52.170;5.386;2023-02-23T16:15:02;15.43;;;3.15;;
70806;SDS011;58882;52.170;5.386;2023-02-23T16:17:55;11.45;;;2.47;;
70806;SDS011;58882;52.170;5.386;2023-02-23T16:23:29;11.30;;;2.58;;
70806;SDS011;58882;52.170;5.386;2023-02-23T16:26:27;14.27;;;3.10;;
70806;SDS011;58882;52.170;5.386;2023-02-23T16:29:29;11.43;;;2.80;;
70806;SDS011;58882;52.170;5.386;2023-02-23T16:35:08;14.93;;;2.60;;
70806;SDS011;58882;52.170;5.386;2023-02-23T16:38:12;14.95;;;2.78;;
70806;SDS011;58882;52.170;5.386;2023-02-23T16:41:20;12.90;;;2.20;;
70806;SDS011;58882;52.170;5.386;2023-02-23T16:44:03;15.88;;;2.60;;
70806;SDS011;58882;52.170;5.386;2023-02-23T16:49:54;12.07;;;2.13;;
70806;SDS011;58882;52.170;5.386;2023-02-23T16:52:46;13.07;;;2.60;;
70806;SDS011;58882;52.170;5.386;2023-02-23T16:55:49;13.32;;;3.03;;
70806;SDS011;58882;52.170;5.386;2023-02-23T16:58:33;14.07;;;2.67;;
70806;SDS011;58882;52.170;5.386;2023-02-23T17:01:20;15.20;;;2.70;;
70806;SDS011;58882;52.170;5.386;2023-02-23T17:06:47;18.08;;;2.28;;
70806;SDS011;58882;52.170;5.386;2023-02-23T17:09:33;14.05;;;2.30;;
70806;SDS011;58882;52.170;5.386;2023-02-23T17:15:01;15.68;;;2.38;;
70806;SDS011;58882;52.170;5.386;2023-02-23T17:17:55;13.50;;;2.58;;
70806;SDS011;58882;52.170;5.386;2023-02-23T17:23:23;12.57;;;2.42;;
70806;SDS011;58882;52.170;5.386;2023-02-23T17:26:06;18.27;;;2.90;;
70806;SDS011;58882;52.170;5.386;2023-02-23T17:28:55;11.02;;;2.00;;
70806;SDS011;58882;52.170;5.386;2023-02-23T17:34:29;14.43;;;3.28;;
70806;SDS011;58882;52.170;5.386;2023-02-23T17:40:07;10.52;;;2.20;;
70806;SDS011;58882;52.170;5.386;2023-02-23T17:43:03;9.65;;;1.90;;
70806;SDS011;58882;52.170;5.386;2023-02-23T17:45:43;12.32;;;2.45;;
70806;SDS011;58882;52.170;5.386;2023-02-23T17:48:33;13.10;;;2.33;;
70806;SDS011;58882;52.170;5.386;2023-02-23T17:54:00;12.35;;;2.00;;
70806;SDS011;58882;52.170;5.386;2023-02-23T17:59:34;9.55;;;1.90;;
70806;SDS011;58882;52.170;5.386;2023-02-23T18:05:02;11.23;;;1.83;;
70806;SDS011;58882;52.170;5.386;2023-02-23T18:10:29;14.98;;;2.30;;
70806;SDS011;58882;52.170;5.386;2023-02-23T18:16:04;13.20;;;2.38;;
70806;SDS011;58882;52.170;5.386;2023-02-23T18:19:01;25.80;;;3.10;;
70806;SDS011;58882;52.170;5.386;2023-02-23T18:24:29;31.75;;;2.63;;
70806;SDS011;58882;52.170;5.386;2023-02-23T18:27:10;15.90;;;2.80;;
70806;SDS011;58882;52.170;5.386;2023-02-23T18:29:57;28.10;;;2.83;;
70806;SDS011;58882;52.170;5.386;2023-02-23T18:35:24;14.65;;;2.10;;
70806;SDS011;58882;52.170;5.386;2023-02-23T18:40:52;29.30;;;3.05;;
70806;SDS011;58882;52.170;5.386;2023-02-23T18:46:26;14.15;;;2.22;;
70806;SDS011;58882;52.170;5.386;2023-02-23T18:49:00;11.52;;;1.98;;
70806;SDS011;58882;52.170;5.386;2023-02-23T18:51:55;16.35;;;2.17;;
70806;SDS011;58882;52.170;5.386;2023-02-23T18:54:29;18.65;;;2.28;;
70806;SDS011;58882;52.170;5.386;2023-02-23T18:57:24;13.40;;;2.30;;
70806;SDS011;58882;52.170;5.386;2023-02-23T19:02:58;15.02;;;2.15;;
70806;SDS011;58882;52.170;5.386;2023-02-23T19:08:38;10.85;;;1.88;;
70806;SDS011;58882;52.170;5.386;2023-02-23T19:11:21;16.58;;;2.35;;
70806;SDS011;58882;52.170;5.386;2023-02-23T19:14:14;12.50;;;1.70;;
70806;SDS011;58882;52.170;5.386;2023-02-23T19:17:16;11.48;;;1.90;;
70806;SDS011;58882;52.170;5.386;2023-02-23T19:20:03;12.48;;;1.92;;
70806;SDS011;58882;52.170;5.386;2023-02-23T19:22:51;12.25;;;1.90;;
70806;SDS011;58882;52.170;5.386;2023-02-23T19:25:38;11.50;;;2.05;;
70806;SDS011;58882;52.170;5.386;2023-02-23T19:31:09;16.23;;;1.80;;
70806;SDS011;58882;52.170;5.386;2023-02-23T19:33:53;12.43;;;2.03;;
70806;SDS011;58882;52.170;5.386;2023-02-23T19:36:43;10.50;;;1.98;;
70806;SDS011;58882;52.170;5.386;2023-02-23T19:39:31;11.85;;;2.17;;
70806;SDS011;58882;52.170;5.386;2023-02-23T19:42:25;13.93;;;2.25;;
70806;SDS011;58882;52.170;5.386;2023-02-23T19:47:59;12.43;;;2.10;;
70806;SDS011;58882;52.170;5.386;2023-02-23T19:53:32;10.73;;;2.00;;
70806;SDS011;58882;52.170;5.386;2023-02-23T19:56:14;10.60;;;2.10;;
70806;SDS011;58882;52.170;5.386;2023-02-23T19:59:04;9.95;;;1.90;;
70806;SDS011;58882;52.170;5.386;2023-02-23T20:01:44;10.73;;;2.10;;
70806;SDS011;58882;52.170;5.386;2023-02-23T20:07:18;10.48;;;2.30;;
70806;SDS011;58882;52.170;5.386;2023-02-23T20:10:05;12.93;;;1.90;;
70806;SDS011;58882;52.170;5.386;2023-02-23T20:12:48;12.13;;;2.40;;
70806;SDS011;58882;52.170;5.386;2023-02-23T20:18:15;10.77;;;2.03;;
70806;SDS011;58882;52.170;5.386;2023-02-23T20:24:11;9.50;;;1.92;;
70806;SDS011;58882;52.170;5.386;2023-02-23T20:26:44;11.13;;;2.13;;
70806;SDS011;58882;52.170;5.386;2023-02-23T20:29:43;12.73;;;2.20;;
70806;SDS011;58882;52.170;5.386;2023-02-23T20:32:25;22.70;;;2.75;;
70806;SDS011;58882;52.170;5.386;2023-02-23T20:35:13;12.25;;;2.45;;
70806;SDS011;58882;52.170;5.386;2023-02-23T20:37:57;10.85;;;2.22;;
70806;SDS011;58882;52.170;5.386;2023-02-23T20:40:44;9.95;;;1.90;;
70806;SDS011;58882;52.170;5.386;2023-02-23T20:46:12;13.95;;;2.20;;
70806;SDS011;58882;52.170;5.386;2023-02-23T20:48:55;12.90;;;2.40;;
70806;SDS011;58882;52.170;5.386;2023-02-23T20:51:49;11.98;;;1.90;;
70806;SDS011;58882;52.170;5.386;2023-02-23T20:54:29;11.77;;;1.88;;
70806;SDS011;58882;52.170;5.386;2023-02-23T20:57:16;13.18;;;2.00;;
70806;SDS011;58882;52.170;5.386;2023-02-23T20:59:49;16.17;;;2.42;;
70806;SDS011;58882;52.170;5.386;2023-02-23T21:05:24;14.73;;;2.05;;
70806;SDS011;58882;52.170;5.386;2023-02-23T21:08:12;10.63;;;2.10;;
70806;SDS011;58882;52.170;5.386;2023-02-23T21:10:52;10.38;;;2.10;;
70806;SDS011;58882;52.170;5.386;2023-02-23T21:13:47;13.65;;;2.50;;
70806;SDS011;58882;52.170;5.386;2023-02-23T21:16:21;13.13;;;2.10;;
70806;SDS011;58882;52.170;5.386;2023-02-23T21:19:17;15.73;;;2.42;;
70806;SDS011;58882;52.170;5.386;2023-02-23T21:21:53;10.23;;;2.42;;
70806;SDS011;58882;52.170;5.386;2023-02-23T21:24:47;10.50;;;2.95;;
70806;SDS011;58882;52.170;5.386;2023-02-23T21:27:27;13.32;;;2.38;;
70806;SDS011;58882;52.170;5.386;2023-02-23T21:33:02;13.35;;;2.78;;
70806;SDS011;58882;52.170;5.386;2023-02-23T21:35:49;11.98;;;2.40;;
70806;SDS011;58882;52.170;5.386;2023-02-23T21:38:37;11.90;;;2.88;;
70806;SDS011;58882;52.170;5.386;2023-02-23T21:41:37;7.70;;;2.00;;
70806;SDS011;58882;52.170;5.386;2023-02-23T21:44:16;10.20;;;2.30;;
70806;SDS011;58882;52.170;5.386;2023-02-23T21:47:03;13.13;;;2.67;;
70806;SDS011;58882;52.170;5.386;2023-02-23T21:52:35;11.20;;;2.92;;
70806;SDS011;58882;52.170;5.386;2023-02-23T21:55:09;17.75;;;3.00;;
70806;SDS011;58882;52.170;5.386;2023-02-23T21:58:05;14.48;;;2.92;;
70806;SDS011;58882;52.170;5.386;2023-02-23T22:00:46;11.90;;;2.80;;
70806;SDS011;58882;52.170;5.386;2023-02-23T22:03:32;10.63;;;2.50;;